sensor_id;sensor_type;location;lat;lon;timestamp;pressure;altitude;pressure_sealevel;temperature;humidity
64211;BME280;50528;48.514;14.394;2023-05-16T00:00:23;93479.40;;;8.92;84.25
64211;BME280;50528;48.514;14.394;2023-05-16T00:01:20;93479.41;;;8.89;84.18
64211;BME280;50528;48.514;14.394;2023-05-16T00:01:54;93481.14;;;8.88;84.28
64211;BME280;50528;48.514;14.394;2023-05-16T00:02:27;93480.00;;;8.89;84.20
64211;BME280;50528;48.514;14.394;2023-05-16T00:03:01;93486.40;;;8.89;84.28
64211;BME280;50528;48.514;14.394;2023-05-16T00:03:38;93479.77;;;8.87;84.19
64211;BME280;50528;48.514;14.394;2023-05-16T00:04:12;93480.86;;;8.87;84.34
64211;BME280;50528;48.514;14.394;2023-05-16T00:04:46;93480.02;;;8.86;84.19
64211;BME280;50528;48.514;14.394;2023-05-16T00:05:20;93478.74;;;8.85;84.21
64211;BME280;50528;48.514;14.394;2023-05-16T00:05:53;93478.53;;;8.86;84.29
64211;BME280;50528;48.514;14.394;2023-05-16T00:06:28;93480.40;;;8.87;84.45
64211;BME280;50528;48.514;14.394;2023-05-16T00:07:04;93478.80;;;8.86;84.37
64211;BME280;50528;48.514;14.394;2023-05-16T00:07:37;93476.92;;;8.86;84.43
64211;BME280;50528;48.514;14.394;2023-05-16T00:08:11;93478.66;;;8.87;84.51
64211;BME280;50528;48.514;14.394;2023-05-16T00:08:44;93478.94;;;8.88;84.16
64211;BME280;50528;48.514;14.394;2023-05-16T00:09:17;93478.20;;;8.85;83.98
64211;BME280;50528;48.514;14.394;2023-05-16T00:09:51;93476.52;;;8.82;83.82
64211;BME280;50528;48.514;14.394;2023-05-16T00:10:24;93477.94;;;8.80;83.77
64211;BME280;50528;48.514;14.394;2023-05-16T00:10:58;93473.83;;;8.77;83.53
64211;BME280;50528;48.514;14.394;2023-05-16T00:11:31;93475.49;;;8.73;83.58
64211;BME280;50528;48.514;14.394;2023-05-16T00:12:05;93473.28;;;8.71;83.57
64211;BME280;50528;48.514;14.394;2023-05-16T00:12:38;93475.10;;;8.69;83.51
64211;BME280;50528;48.514;14.394;2023-05-16T00:13:12;93474.59;;;8.67;83.52
64211;BME280;50528;48.514;14.394;2023-05-16T00:13:45;93473.17;;;8.66;83.46
64211;BME280;50528;48.514;14.394;2023-05-16T00:14:20;93476.14;;;8.64;83.45
64211;BME280;50528;48.514;14.394;2023-05-16T00:14:56;93472.38;;;8.62;83.45
64211;BME280;50528;48.514;14.394;2023-05-16T00:15:34;93470.09;;;8.60;83.42
64211;BME280;50528;48.514;14.394;2023-05-16T00:16:08;93468.69;;;8.59;83.38
64211;BME280;50528;48.514;14.394;2023-05-16T00:16:41;93468.24;;;8.57;83.35
64211;BME280;50528;48.514;14.394;2023-05-16T00:17:15;93467.13;;;8.56;83.39
64211;BME280;50528;48.514;14.394;2023-05-16T00:17:49;93467.65;;;8.56;83.44
64211;BME280;50528;48.514;14.394;2023-05-16T00:18:24;93470.16;;;8.56;83.39
64211;BME280;50528;48.514;14.394;2023-05-16T00:18:58;93467.75;;;8.56;83.50
64211;BME280;50528;48.514;14.394;2023-05-16T00:19:33;93464.08;;;8.56;83.36
64211;BME280;50528;48.514;14.394;2023-05-16T00:20:07;93466.59;;;8.55;83.39
64211;BME280;50528;48.514;14.394;2023-05-16T00:20:44;93464.66;;;8.55;83.47
64211;BME280;50528;48.514;14.394;2023-05-16T00:21:17;93464.70;;;8.55;83.46
64211;BME280;50528;48.514;14.394;2023-05-16T00:21:53;93465.80;;;8.56;83.33
64211;BME280;50528;48.514;14.394;2023-05-16T00:22:27;93463.98;;;8.55;83.39
64211;BME280;50528;48.514;14.394;2023-05-16T00:23:00;93462.02;;;8.55;83.26
64211;BME280;50528;48.514;14.394;2023-05-16T00:23:34;93462.23;;;8.54;83.26
64211;BME280;50528;48.514;14.394;2023-05-16T00:24:07;93460.27;;;8.53;83.21
64211;BME280;50528;48.514;14.394;2023-05-16T00:24:41;93454.69;;;8.55;83.28
64211;BME280;50528;48.514;14.394;2023-05-16T00:25:14;93456.73;;;8.55;83.23
64211;BME280;50528;48.514;14.394;2023-05-16T00:25:48;93454.05;;;8.54;83.28
64211;BME280;50528;48.514;14.394;2023-05-16T00:26:21;93455.05;;;8.53;83.34
64211;BME280;50528;48.514;14.394;2023-05-16T00:26:54;93454.90;;;8.53;83.27
64211;BME280;50528;48.514;14.394;2023-05-16T00:27:28;93452.90;;;8.54;83.29
64211;BME280;50528;48.514;14.394;2023-05-16T00:28:01;93454.32;;;8.53;83.43
64211;BME280;50528;48.514;14.394;2023-05-16T00:28:35;93450.80;;;8.53;83.31
64211;BME280;50528;48.514;14.394;2023-05-16T00:29:09;93449.28;;;8.52;83.37
64211;BME280;50528;48.514;14.394;2023-05-16T00:29:42;93452.69;;;8.54;83.39
64211;BME280;50528;48.514;14.394;2023-05-16T00:30:15;93453.58;;;8.54;83.46
64211;BME280;50528;48.514;14.394;2023-05-16T00:30:49;93452.98;;;8.56;83.53
64211;BME280;50528;48.514;14.394;2023-05-16T00:31:22;93452.70;;;8.54;83.42
64211;BME280;50528;48.514;14.394;2023-05-16T00:31:56;93449.65;;;8.50;83.49
64211;BME280;50528;48.514;14.394;2023-05-16T00:32:30;93450.36;;;8.49;83.59
64211;BME280;50528;48.514;14.394;2023-05-16T00:33:06;93451.94;;;8.48;83.67
64211;BME280;50528;48.514;14.394;2023-05-16T00:33:39;93450.93;;;8.47;83.84
64211;BME280;50528;48.514;14.394;2023-05-16T00:34:13;93451.93;;;8.49;83.94
64211;BME280;50528;48.514;14.394;2023-05-16T00:34:48;93450.42;;;8.47;83.86
64211;BME280;50528;48.514;14.394;2023-05-16T00:35:21;93451.94;;;8.48;83.99
64211;BME280;50528;48.514;14.394;2023-05-16T00:35:54;93452.88;;;8.49;84.05
64211;BME280;50528;48.514;14.394;2023-05-16T00:36:28;93447.92;;;8.50;84.14
64211;BME280;50528;48.514;14.394;2023-05-16T00:37:03;93453.16;;;8.50;84.31
64211;BME280;50528;48.514;14.394;2023-05-16T00:37:37;93452.66;;;8.51;84.34
64211;BME280;50528;48.514;14.394;2023-05-16T00:38:10;93451.98;;;8.52;84.46
64211;BME280;50528;48.514;14.394;2023-05-16T00:38:43;93452.70;;;8.53;84.60
64211;BME280;50528;48.514;14.394;2023-05-16T00:39:17;93450.98;;;8.55;84.73
64211;BME280;50528;48.514;14.394;2023-05-16T00:39:51;93450.35;;;8.55;84.96
64211;BME280;50528;48.514;14.394;2023-05-16T00:40:24;93450.63;;;8.57;84.95
64211;BME280;50528;48.514;14.394;2023-05-16T00:40:58;93451.70;;;8.54;84.93
64211;BME280;50528;48.514;14.394;2023-05-16T00:41:33;93449.96;;;8.52;85.01
64211;BME280;50528;48.514;14.394;2023-05-16T00:42:06;93446.71;;;8.52;85.23
64211;BME280;50528;48.514;14.394;2023-05-16T00:42:39;93445.96;;;8.51;85.17
64211;BME280;50528;48.514;14.394;2023-05-16T00:43:13;93447.54;;;8.51;85.30
64211;BME280;50528;48.514;14.394;2023-05-16T00:43:46;93444.63;;;8.50;85.26
64211;BME280;50528;48.514;14.394;2023-05-16T00:44:19;93446.23;;;8.48;85.22
64211;BME280;50528;48.514;14.394;2023-05-16T00:44:54;93445.77;;;8.49;85.36
64211;BME280;50528;48.514;14.394;2023-05-16T00:45:27;93442.78;;;8.49;85.46
64211;BME280;50528;48.514;14.394;2023-05-16T00:46:01;93446.70;;;8.47;85.23
64211;BME280;50528;48.514;14.394;2023-05-16T00:46:34;93446.69;;;8.43;85.32
64211;BME280;50528;48.514;14.394;2023-05-16T00:47:08;93443.73;;;8.41;85.24
64211;BME280;50528;48.514;14.394;2023-05-16T00:47:41;93442.55;;;8.39;85.22
64211;BME280;50528;48.514;14.394;2023-05-16T00:48:15;93442.00;;;8.38;85.26
64211;BME280;50528;48.514;14.394;2023-05-16T00:48:48;93442.73;;;8.36;85.17
64211;BME280;50528;48.514;14.394;2023-05-16T00:49:22;93442.96;;;8.34;84.99
64211;BME280;50528;48.514;14.394;2023-05-16T00:49:56;93440.52;;;8.32;84.88
64211;BME280;50528;48.514;14.394;2023-05-16T00:50:29;93441.23;;;8.31;84.92
64211;BME280;50528;48.514;14.394;2023-05-16T00:51:03;93443.22;;;8.30;84.85
64211;BME280;50528;48.514;14.394;2023-05-16T00:51:38;93439.78;;;8.29;84.84
64211;BME280;50528;48.514;14.394;2023-05-16T00:52:11;93444.39;;;8.28;84.86
64211;BME280;50528;48.514;14.394;2023-05-16T00:52:44;93444.77;;;8.29;84.86
64211;BME280;50528;48.514;14.394;2023-05-16T00:53:19;93439.94;;;8.29;84.81
64211;BME280;50528;48.514;14.394;2023-05-16T00:53:54;93445.17;;;8.29;84.69
64211;BME280;50528;48.514;14.394;2023-05-16T00:54:29;93445.74;;;8.29;84.61
64211;BME280;50528;48.514;14.394;2023-05-16T00:55:03;93444.15;;;8.28;84.55
64211;BME280;50528;48.514;14.394;2023-05-16T00:55:37;93442.63;;;8.28;84.46
64211;BME280;50528;48.514;14.394;2023-05-16T00:56:12;93441.83;;;8.27;84.37
64211;BME280;50528;48.514;14.394;2023-05-16T00:56:45;93440.50;;;8.28;84.53
64211;BME280;50528;48.514;14.394;2023-05-16T00:57:19;93440.86;;;8.30;84.59
64211;BME280;50528;48.514;14.394;2023-05-16T00:57:52;93437.48;;;8.29;84.45
64211;BME280;50528;48.514;14.394;2023-05-16T00:58:27;93436.35;;;8.27;84.60
64211;BME280;50528;48.514;14.394;2023-05-16T00:59:02;93430.87;;;8.25;84.67
64211;BME280;50528;48.514;14.394;2023-05-16T00:59:36;93433.27;;;8.26;84.85
64211;BME280;50528;48.514;14.394;2023-05-16T01:00:09;93431.06;;;8.28;85.18
64211;BME280;50528;48.514;14.394;2023-05-16T01:00:44;93429.34;;;8.25;85.04
64211;BME280;50528;48.514;14.394;2023-05-16T01:01:22;93430.33;;;8.23;85.09
64211;BME280;50528;48.514;14.394;2023-05-16T01:01:57;93430.67;;;8.22;85.21
64211;BME280;50528;48.514;14.394;2023-05-16T01:02:31;93424.98;;;8.23;85.30
64211;BME280;50528;48.514;14.394;2023-05-16T01:03:07;93426.56;;;8.25;85.43
64211;BME280;50528;48.514;14.394;2023-05-16T01:03:43;93428.20;;;8.26;85.59
64211;BME280;50528;48.514;14.394;2023-05-16T01:04:19;93425.54;;;8.26;85.69
64211;BME280;50528;48.514;14.394;2023-05-16T01:04:53;93429.09;;;8.28;85.89
64211;BME280;50528;48.514;14.394;2023-05-16T01:05:28;93426.05;;;8.28;85.87
64211;BME280;50528;48.514;14.394;2023-05-16T01:06:01;93426.41;;;8.28;85.91
64211;BME280;50528;48.514;14.394;2023-05-16T01:06:35;93425.84;;;8.29;85.92
64211;BME280;50528;48.514;14.394;2023-05-16T01:07:10;93428.94;;;8.29;85.90
64211;BME280;50528;48.514;14.394;2023-05-16T01:07:44;93427.73;;;8.29;85.92
64211;BME280;50528;48.514;14.394;2023-05-16T01:08:17;93428.10;;;8.30;86.02
64211;BME280;50528;48.514;14.394;2023-05-16T01:08:51;93426.33;;;8.29;86.00
64211;BME280;50528;48.514;14.394;2023-05-16T01:09:24;93429.41;;;8.29;85.97
64211;BME280;50528;48.514;14.394;2023-05-16T01:09:58;93428.28;;;8.30;86.03
64211;BME280;50528;48.514;14.394;2023-05-16T01:10:39;93428.60;;;8.30;86.13
64211;BME280;50528;48.514;14.394;2023-05-16T01:12:28;93436.11;;;8.25;85.61
64211;BME280;50528;48.514;14.394;2023-05-16T01:13:16;93434.88;;;8.20;85.62
64211;BME280;50528;48.514;14.394;2023-05-16T01:16:04;93434.23;;;8.08;85.75
64211;BME280;50528;48.514;14.394;2023-05-16T01:16:58;93433.95;;;8.05;85.51
64211;BME280;50528;48.514;14.394;2023-05-16T01:17:49;93437.11;;;7.99;85.31
64211;BME280;50528;48.514;14.394;2023-05-16T01:18:56;93439.16;;;7.92;85.15
64211;BME280;50528;48.514;14.394;2023-05-16T01:20:58;93443.20;;;7.72;85.09
64211;BME280;50528;48.514;14.394;2023-05-16T01:21:48;93442.06;;;7.66;85.04
64211;BME280;50528;48.514;14.394;2023-05-16T01:26:22;93436.69;;;7.40;85.00
64211;BME280;50528;48.514;14.394;2023-05-16T01:26:57;93433.95;;;7.37;84.89
64211;BME280;50528;48.514;14.394;2023-05-16T01:27:32;93434.08;;;7.37;84.94
64211;BME280;50528;48.514;14.394;2023-05-16T01:28:06;93433.52;;;7.39;84.89
64211;BME280;50528;48.514;14.394;2023-05-16T01:28:40;93434.07;;;7.37;84.83
64211;BME280;50528;48.514;14.394;2023-05-16T01:29:14;93432.09;;;7.38;84.90
64211;BME280;50528;48.514;14.394;2023-05-16T01:29:47;93430.95;;;7.39;84.90
64211;BME280;50528;48.514;14.394;2023-05-16T01:30:21;93431.16;;;7.38;84.86
64211;BME280;50528;48.514;14.394;2023-05-16T01:30:54;93431.40;;;7.40;85.10
64211;BME280;50528;48.514;14.394;2023-05-16T01:31:28;93428.77;;;7.42;84.97
64211;BME280;50528;48.514;14.394;2023-05-16T01:32:01;93432.18;;;7.40;84.94
64211;BME280;50528;48.514;14.394;2023-05-16T01:32:35;93428.25;;;7.43;85.04
64211;BME280;50528;48.514;14.394;2023-05-16T01:33:09;93424.48;;;7.43;84.88
64211;BME280;50528;48.514;14.394;2023-05-16T01:33:43;93426.77;;;7.42;85.06
64211;BME280;50528;48.514;14.394;2023-05-16T01:34:16;93427.05;;;7.47;84.70
64211;BME280;50528;48.514;14.394;2023-05-16T01:34:50;93428.89;;;7.44;84.65
64211;BME280;50528;48.514;14.394;2023-05-16T01:35:24;93425.52;;;7.39;84.49
64211;BME280;50528;48.514;14.394;2023-05-16T01:36:05;93428.20;;;7.36;84.47
64211;BME280;50528;48.514;14.394;2023-05-16T01:36:49;93426.63;;;7.29;84.41
64211;BME280;50528;48.514;14.394;2023-05-16T01:37:53;93421.58;;;7.22;84.42
64211;BME280;50528;48.514;14.394;2023-05-16T01:38:25;93427.77;;;7.17;84.28
64211;BME280;50528;48.514;14.394;2023-05-16T01:39:17;93426.65;;;7.14;84.40
64211;BME280;50528;48.514;14.394;2023-05-16T01:40:02;93428.75;;;7.08;84.35
64211;BME280;50528;48.514;14.394;2023-05-16T01:41:00;93425.95;;;7.05;84.51
64211;BME280;50528;48.514;14.394;2023-05-16T01:42:15;93429.37;;;7.00;84.71
64211;BME280;50528;48.514;14.394;2023-05-16T01:42:51;93428.05;;;7.00;84.89
64211;BME280;50528;48.514;14.394;2023-05-16T01:43:36;93432.28;;;6.99;84.91
64211;BME280;50528;48.514;14.394;2023-05-16T01:44:35;93429.73;;;6.98;84.98
64211;BME280;50528;48.514;14.394;2023-05-16T01:45:19;93427.46;;;6.97;85.02
64211;BME280;50528;48.514;14.394;2023-05-16T01:46:01;93429.04;;;6.97;85.20
64211;BME280;50528;48.514;14.394;2023-05-16T01:46:37;93426.29;;;6.98;85.43
64211;BME280;50528;48.514;14.394;2023-05-16T01:47:15;93424.80;;;6.98;85.34
64211;BME280;50528;48.514;14.394;2023-05-16T01:47:55;93422.31;;;7.00;85.36
64211;BME280;50528;48.514;14.394;2023-05-16T01:48:43;93422.48;;;7.01;85.38
64211;BME280;50528;48.514;14.394;2023-05-16T01:50:43;93421.32;;;7.01;85.39
64211;BME280;50528;48.514;14.394;2023-05-16T01:51:21;93422.10;;;6.94;85.16
64211;BME280;50528;48.514;14.394;2023-05-16T01:52:01;93420.56;;;6.93;85.25
64211;BME280;50528;48.514;14.394;2023-05-16T01:53:07;93421.88;;;6.93;85.43
64211;BME280;50528;48.514;14.394;2023-05-16T01:53:43;93421.13;;;6.90;85.29
64211;BME280;50528;48.514;14.394;2023-05-16T01:54:18;93421.89;;;6.88;85.50
64211;BME280;50528;48.514;14.394;2023-05-16T01:54:52;93426.39;;;6.88;85.55
64211;BME280;50528;48.514;14.394;2023-05-16T01:55:35;93427.20;;;6.91;85.84
64211;BME280;50528;48.514;14.394;2023-05-16T01:56:15;93423.05;;;6.89;85.69
64211;BME280;50528;48.514;14.394;2023-05-16T01:56:53;93424.56;;;6.90;85.93
64211;BME280;50528;48.514;14.394;2023-05-16T01:57:28;93424.50;;;6.91;85.98
64211;BME280;50528;48.514;14.394;2023-05-16T01:58:06;93425.82;;;6.94;86.19
64211;BME280;50528;48.514;14.394;2023-05-16T01:58:41;93426.88;;;6.95;86.12
64211;BME280;50528;48.514;14.394;2023-05-16T01:59:15;93427.48;;;6.98;86.17
64211;BME280;50528;48.514;14.394;2023-05-16T01:59:49;93425.70;;;6.99;86.25
64211;BME280;50528;48.514;14.394;2023-05-16T02:00:22;93427.42;;;7.03;86.35
64211;BME280;50528;48.514;14.394;2023-05-16T02:01:02;93429.10;;;7.06;86.54
64211;BME280;50528;48.514;14.394;2023-05-16T02:01:36;93431.83;;;7.06;86.42
64211;BME280;50528;48.514;14.394;2023-05-16T02:02:10;93433.64;;;7.09;86.58
64211;BME280;50528;48.514;14.394;2023-05-16T02:02:43;93433.39;;;7.12;86.66
64211;BME280;50528;48.514;14.394;2023-05-16T02:03:16;93434.67;;;7.17;86.74
64211;BME280;50528;48.514;14.394;2023-05-16T02:03:51;93439.69;;;7.16;86.76
64211;BME280;50528;48.514;14.394;2023-05-16T02:04:24;93438.15;;;7.16;86.85
64211;BME280;50528;48.514;14.394;2023-05-16T02:04:58;93437.09;;;7.15;86.82
64211;BME280;50528;48.514;14.394;2023-05-16T02:05:31;93437.97;;;7.15;86.84
64211;BME280;50528;48.514;14.394;2023-05-16T02:06:05;93439.48;;;7.15;86.89
64211;BME280;50528;48.514;14.394;2023-05-16T02:06:39;93438.20;;;7.16;86.90
64211;BME280;50528;48.514;14.394;2023-05-16T02:07:12;93437.34;;;7.14;86.85
64211;BME280;50528;48.514;14.394;2023-05-16T02:07:46;93437.50;;;7.15;86.86
64211;BME280;50528;48.514;14.394;2023-05-16T02:08:20;93437.52;;;7.16;86.85
64211;BME280;50528;48.514;14.394;2023-05-16T02:08:55;93437.99;;;7.16;86.77
64211;BME280;50528;48.514;14.394;2023-05-16T02:09:28;93439.16;;;7.16;86.74
64211;BME280;50528;48.514;14.394;2023-05-16T02:10:01;93434.86;;;7.14;86.66
64211;BME280;50528;48.514;14.394;2023-05-16T02:10:40;93437.32;;;7.10;86.63
64211;BME280;50528;48.514;14.394;2023-05-16T02:11:13;93436.54;;;7.07;86.71
64211;BME280;50528;48.514;14.394;2023-05-16T02:11:47;93437.52;;;7.06;86.70
64211;BME280;50528;48.514;14.394;2023-05-16T02:12:20;93437.94;;;7.06;86.81
64211;BME280;50528;48.514;14.394;2023-05-16T02:12:53;93437.58;;;7.06;86.82
64211;BME280;50528;48.514;14.394;2023-05-16T02:13:27;93438.34;;;7.06;86.75
64211;BME280;50528;48.514;14.394;2023-05-16T02:14:01;93440.35;;;7.07;86.74
64211;BME280;50528;48.514;14.394;2023-05-16T02:14:34;93439.36;;;7.07;86.72
64211;BME280;50528;48.514;14.394;2023-05-16T02:15:08;93437.33;;;7.08;86.73
64211;BME280;50528;48.514;14.394;2023-05-16T02:15:43;93437.41;;;7.09;86.71
64211;BME280;50528;48.514;14.394;2023-05-16T02:16:17;93435.51;;;7.11;86.68
64211;BME280;50528;48.514;14.394;2023-05-16T02:16:50;93438.80;;;7.11;86.63
64211;BME280;50528;48.514;14.394;2023-05-16T02:17:24;93440.04;;;7.13;86.63
64211;BME280;50528;48.514;14.394;2023-05-16T02:17:57;93434.65;;;7.14;86.61
64211;BME280;50528;48.514;14.394;2023-05-16T02:18:30;93437.82;;;7.15;86.55
64211;BME280;50528;48.514;14.394;2023-05-16T02:19:04;93435.73;;;7.16;86.50
64211;BME280;50528;48.514;14.394;2023-05-16T02:19:38;93433.20;;;7.16;86.50
64211;BME280;50528;48.514;14.394;2023-05-16T02:20:12;93435.88;;;7.17;86.42
64211;BME280;50528;48.514;14.394;2023-05-16T02:20:45;93434.64;;;7.18;86.45
64211;BME280;50528;48.514;14.394;2023-05-16T02:21:20;93433.40;;;7.19;86.38
64211;BME280;50528;48.514;14.394;2023-05-16T02:21:54;93433.04;;;7.20;86.42
64211;BME280;50528;48.514;14.394;2023-05-16T02:22:27;93437.23;;;7.21;86.30
64211;BME280;50528;48.514;14.394;2023-05-16T02:23:01;93437.98;;;7.21;86.23
64211;BME280;50528;48.514;14.394;2023-05-16T02:23:37;93437.85;;;7.22;86.17
64211;BME280;50528;48.514;14.394;2023-05-16T02:24:10;93438.16;;;7.23;86.17
64211;BME280;50528;48.514;14.394;2023-05-16T02:24:43;93439.28;;;7.23;86.02
64211;BME280;50528;48.514;14.394;2023-05-16T02:25:17;93441.23;;;7.24;86.06
64211;BME280;50528;48.514;14.394;2023-05-16T02:25:51;93440.35;;;7.24;86.03
64211;BME280;50528;48.514;14.394;2023-05-16T02:26:24;93442.53;;;7.25;86.04
64211;BME280;50528;48.514;14.394;2023-05-16T02:26:57;93442.34;;;7.26;85.99
64211;BME280;50528;48.514;14.394;2023-05-16T02:27:31;93441.52;;;7.27;86.00
64211;BME280;50528;48.514;14.394;2023-05-16T02:28:04;93446.80;;;7.29;86.00
64211;BME280;50528;48.514;14.394;2023-05-16T02:28:38;93444.15;;;7.30;85.99
64211;BME280;50528;48.514;14.394;2023-05-16T02:29:12;93443.10;;;7.33;85.99
64211;BME280;50528;48.514;14.394;2023-05-16T02:29:45;93445.86;;;7.34;86.19
64211;BME280;50528;48.514;14.394;2023-05-16T02:30:18;93445.27;;;7.38;86.24
64211;BME280;50528;48.514;14.394;2023-05-16T02:31:04;93444.00;;;7.40;86.26
64211;BME280;50528;48.514;14.394;2023-05-16T02:31:37;93445.36;;;7.38;86.41
64211;BME280;50528;48.514;14.394;2023-05-16T02:32:11;93446.41;;;7.38;86.52
64211;BME280;50528;48.514;14.394;2023-05-16T02:32:44;93443.89;;;7.39;86.65
64211;BME280;50528;48.514;14.394;2023-05-16T02:33:18;93439.57;;;7.40;86.71
64211;BME280;50528;48.514;14.394;2023-05-16T02:33:51;93441.00;;;7.41;86.91
64211;BME280;50528;48.514;14.394;2023-05-16T02:34:26;93440.44;;;7.44;86.94
64211;BME280;50528;48.514;14.394;2023-05-16T02:34:59;93438.13;;;7.45;86.89
64211;BME280;50528;48.514;14.394;2023-05-16T02:35:32;93437.30;;;7.46;87.01
64211;BME280;50528;48.514;14.394;2023-05-16T02:36:06;93438.27;;;7.48;86.98
64211;BME280;50528;48.514;14.394;2023-05-16T02:36:39;93438.31;;;7.48;87.08
64211;BME280;50528;48.514;14.394;2023-05-16T02:37:12;93437.73;;;7.50;87.07
64211;BME280;50528;48.514;14.394;2023-05-16T02:37:46;93437.23;;;7.51;87.22
64211;BME280;50528;48.514;14.394;2023-05-16T02:38:19;93428.17;;;7.47;87.20
64211;BME280;50528;48.514;14.394;2023-05-16T02:38:53;93439.77;;;7.52;87.27
64211;BME280;50528;48.514;14.394;2023-05-16T02:39:27;93436.11;;;7.53;87.23
64211;BME280;50528;48.514;14.394;2023-05-16T02:40:03;93438.30;;;7.54;87.26
64211;BME280;50528;48.514;14.394;2023-05-16T02:40:41;93438.89;;;7.55;87.18
64211;BME280;50528;48.514;14.394;2023-05-16T02:41:15;93441.55;;;7.54;87.23
64211;BME280;50528;48.514;14.394;2023-05-16T02:41:48;93436.06;;;7.55;87.13
64211;BME280;50528;48.514;14.394;2023-05-16T02:42:21;93438.96;;;7.55;87.17
64211;BME280;50528;48.514;14.394;2023-05-16T02:42:54;93436.83;;;7.56;87.20
64211;BME280;50528;48.514;14.394;2023-05-16T02:43:28;93438.09;;;7.56;87.24
64211;BME280;50528;48.514;14.394;2023-05-16T02:44:01;93437.62;;;7.56;87.19
64211;BME280;50528;48.514;14.394;2023-05-16T02:44:35;93436.09;;;7.56;87.23
64211;BME280;50528;48.514;14.394;2023-05-16T02:45:08;93436.81;;;7.58;87.37
64211;BME280;50528;48.514;14.394;2023-05-16T02:45:42;93437.63;;;7.59;87.52
64211;BME280;50528;48.514;14.394;2023-05-16T02:46:58;93439.29;;;7.59;87.41
64211;BME280;50528;48.514;14.394;2023-05-16T02:47:32;93438.65;;;7.58;87.38
64211;BME280;50528;48.514;14.394;2023-05-16T02:48:05;93437.25;;;7.59;87.39
64211;BME280;50528;48.514;14.394;2023-05-16T02:48:39;93436.58;;;7.59;87.37
64211;BME280;50528;48.514;14.394;2023-05-16T02:49:13;93439.36;;;7.60;87.41
64211;BME280;50528;48.514;14.394;2023-05-16T02:49:46;93437.85;;;7.61;87.40
64211;BME280;50528;48.514;14.394;2023-05-16T02:50:19;93436.33;;;7.61;87.34
64211;BME280;50528;48.514;14.394;2023-05-16T02:50:53;93435.97;;;7.61;87.35
64211;BME280;50528;48.514;14.394;2023-05-16T02:51:27;93442.76;;;7.61;87.23
64211;BME280;50528;48.514;14.394;2023-05-16T02:52:00;93442.19;;;7.61;87.20
64211;BME280;50528;48.514;14.394;2023-05-16T02:52:34;93439.41;;;7.61;87.16
64211;BME280;50528;48.514;14.394;2023-05-16T02:53:07;93438.98;;;7.61;87.21
64211;BME280;50528;48.514;14.394;2023-05-16T02:53:40;93440.55;;;7.61;87.11
64211;BME280;50528;48.514;14.394;2023-05-16T02:54:17;93438.10;;;7.60;86.99
64211;BME280;50528;48.514;14.394;2023-05-16T02:54:50;93437.00;;;7.59;87.02
64211;BME280;50528;48.514;14.394;2023-05-16T02:55:44;93434.89;;;7.56;86.75
64211;BME280;50528;48.514;14.394;2023-05-16T02:56:18;93438.20;;;7.54;86.82
64211;BME280;50528;48.514;14.394;2023-05-16T02:56:52;93438.13;;;7.55;86.74
64211;BME280;50528;48.514;14.394;2023-05-16T02:57:39;93436.69;;;7.53;86.55
64211;BME280;50528;48.514;14.394;2023-05-16T02:58:12;93435.95;;;7.52;86.65
64211;BME280;50528;48.514;14.394;2023-05-16T02:58:48;93438.52;;;7.53;86.51
64211;BME280;50528;48.514;14.394;2023-05-16T02:59:21;93436.27;;;7.53;86.38
64211;BME280;50528;48.514;14.394;2023-05-16T02:59:55;93437.52;;;7.52;86.28
64211;BME280;50528;48.514;14.394;2023-05-16T03:00:29;93437.98;;;7.52;86.27
64211;BME280;50528;48.514;14.394;2023-05-16T03:01:02;93433.52;;;7.51;86.21
64211;BME280;50528;48.514;14.394;2023-05-16T03:01:36;93434.65;;;7.51;86.03
64211;BME280;50528;48.514;14.394;2023-05-16T03:02:10;93430.48;;;7.52;86.01
64211;BME280;50528;48.514;14.394;2023-05-16T03:02:44;93432.79;;;7.52;85.95
64211;BME280;50528;48.514;14.394;2023-05-16T03:03:18;93430.70;;;7.52;85.91
64211;BME280;50528;48.514;14.394;2023-05-16T03:03:51;93433.89;;;7.51;85.82
64211;BME280;50528;48.514;14.394;2023-05-16T03:04:25;93432.27;;;7.51;85.78
64211;BME280;50528;48.514;14.394;2023-05-16T03:04:59;93437.13;;;7.51;85.76
64211;BME280;50528;48.514;14.394;2023-05-16T03:05:32;93433.63;;;7.52;85.65
64211;BME280;50528;48.514;14.394;2023-05-16T03:06:05;93430.02;;;7.51;85.53
64211;BME280;50528;48.514;14.394;2023-05-16T03:06:39;93427.63;;;7.52;85.48
64211;BME280;50528;48.514;14.394;2023-05-16T03:07:12;93431.29;;;7.52;85.39
64211;BME280;50528;48.514;14.394;2023-05-16T03:07:46;93431.16;;;7.51;85.31
64211;BME280;50528;48.514;14.394;2023-05-16T03:08:19;93431.63;;;7.51;85.28
64211;BME280;50528;48.514;14.394;2023-05-16T03:08:53;93429.94;;;7.51;85.25
64211;BME280;50528;48.514;14.394;2023-05-16T03:09:26;93429.52;;;7.50;85.31
64211;BME280;50528;48.514;14.394;2023-05-16T03:09:59;93428.63;;;7.50;85.31
64211;BME280;50528;48.514;14.394;2023-05-16T03:10:33;93430.97;;;7.50;85.33
64211;BME280;50528;48.514;14.394;2023-05-16T03:11:06;93429.56;;;7.50;85.32
64211;BME280;50528;48.514;14.394;2023-05-16T03:11:39;93428.84;;;7.50;85.23
64211;BME280;50528;48.514;14.394;2023-05-16T03:12:14;93427.36;;;7.49;85.26
64211;BME280;50528;48.514;14.394;2023-05-16T03:12:47;93429.56;;;7.50;85.25
64211;BME280;50528;48.514;14.394;2023-05-16T03:13:20;93426.89;;;7.50;85.28
64211;BME280;50528;48.514;14.394;2023-05-16T03:13:54;93428.99;;;7.50;85.17
64211;BME280;50528;48.514;14.394;2023-05-16T03:14:29;93428.67;;;7.50;85.18
64211;BME280;50528;48.514;14.394;2023-05-16T03:15:02;93427.98;;;7.50;85.29
64211;BME280;50528;48.514;14.394;2023-05-16T03:15:36;93427.48;;;7.51;85.24
64211;BME280;50528;48.514;14.394;2023-05-16T03:16:09;93428.63;;;7.50;85.27
64211;BME280;50528;48.514;14.394;2023-05-16T03:16:43;93428.11;;;7.50;85.27
64211;BME280;50528;48.514;14.394;2023-05-16T03:17:17;93426.81;;;7.51;85.22
64211;BME280;50528;48.514;14.394;2023-05-16T03:17:51;93428.59;;;7.50;85.28
64211;BME280;50528;48.514;14.394;2023-05-16T03:18:24;93432.47;;;7.51;85.25